createdAt,value
2023-03-13T00:00:19.902Z,74.60
2023-03-13T00:05:21.558Z,74.78
2023-03-13T00:10:23.184Z,74.34
2023-03-13T00:15:24.710Z,74.02
2023-03-13T00:20:26.654Z,74.12
2023-03-13T00:25:30.432Z,73.75
2023-03-13T00:30:32.048Z,73.50
2023-03-13T00:35:33.731Z,73.51
2023-03-13T00:40:35.277Z,73.24
2023-03-13T00:45:36.780Z,72.58
2023-03-13T00:50:39.280Z,72.43
2023-03-13T00:55:51.566Z,71.72
2023-03-13T01:00:54.057Z,71.49
2023-03-13T01:06:00.659Z,71.57
2023-03-13T01:11:06.579Z,71.39
2023-03-13T01:16:14.764Z,71.12
2023-03-13T01:21:19.174Z,71.17
2023-03-13T01:26:21.799Z,71.57
2023-03-13T01:31:26.920Z,71.32
2023-03-13T01:36:29.661Z,71.60
2023-03-13T01:41:31.747Z,71.39
2023-03-13T01:46:33.510Z,71.63
2023-03-13T01:51:47.470Z,71.97
2023-03-13T01:57:00.714Z,73.22
2023-03-13T02:02:04.605Z,74.87
2023-03-13T02:07:12.547Z,76.05
2023-03-13T02:12:40.144Z,77.36
2023-03-13T02:17:43.043Z,79.00
2023-03-13T02:22:53.728Z,79.75
2023-03-13T02:28:00.173Z,79.97
2023-03-13T02:33:03.524Z,80.75
2023-03-13T02:38:10.272Z,81.12
2023-03-13T02:43:21.221Z,82.10
2023-03-13T02:48:31.639Z,82.56
2023-03-13T02:53:33.555Z,82.31
2023-03-13T02:58:49.322Z,82.12
2023-03-13T03:03:52.347Z,82.49
2023-03-13T03:08:53.941Z,82.91
2023-03-13T03:13:56.617Z,82.81
2023-03-13T03:18:59.286Z,84.06
2023-03-13T03:24:01.401Z,84.27
2023-03-13T03:29:03.489Z,84.30
2023-03-13T03:34:07.895Z,85.27
2023-03-13T03:39:09.861Z,85.03
2023-03-13T03:44:11.466Z,85.36
2023-03-13T03:49:25.537Z,85.38
2023-03-13T03:54:27.464Z,84.83
2023-03-13T03:59:29.767Z,84.92
2023-03-13T04:04:33.421Z,84.77
2023-03-13T04:09:46.878Z,84.88
2023-03-13T04:14:56.441Z,85.04
2023-03-13T04:19:58.109Z,84.96
2023-03-13T04:25:00.930Z,85.24
2023-03-13T04:30:05.657Z,84.97
2023-03-13T04:35:21.223Z,84.77
2023-03-13T04:41:01.038Z,84.90
2023-03-13T04:46:15.557Z,84.63
2023-03-13T04:51:35.729Z,85.13
2023-03-13T04:57:00.258Z,85.28
2023-03-13T05:02:14.160Z,85.55
2023-03-13T05:07:41.858Z,85.46
2023-03-13T05:13:02.676Z,87.33
2023-03-13T05:18:24.786Z,90.96
2023-03-13T05:23:56.100Z,92.51
2023-03-13T05:29:00.498Z,93.27
2023-03-13T05:34:13.109Z,91.60
2023-03-13T05:39:42.722Z,91.67
2023-03-13T05:44:54.743Z,90.45
2023-03-13T05:50:28.429Z,90.70
2023-03-13T05:55:55.968Z,90.15
2023-03-13T06:01:24.229Z,89.85
2023-03-13T06:06:35.477Z,90.75
2023-03-13T06:11:40.317Z,90.62
2023-03-13T06:16:42.092Z,90.23
2023-03-13T06:21:50.360Z,90.47
2023-03-13T06:26:52.145Z,90.48
2023-03-13T06:31:53.813Z,91.07
2023-03-13T06:36:56.465Z,90.88
2023-03-13T06:41:58.515Z,91.67
2023-03-13T06:47:00.061Z,91.52
2023-03-13T06:52:01.761Z,92.02
2023-03-13T06:57:03.441Z,91.75
2023-03-13T07:02:05.127Z,91.19
2023-03-13T07:07:06.838Z,91.39
2023-03-13T07:12:08.731Z,90.95
2023-03-13T07:17:10.354Z,91.17
2023-03-13T07:22:11.888Z,90.36
2023-03-13T07:27:32.987Z,89.72
2023-03-13T07:32:34.669Z,89.33
2023-03-13T07:37:36.226Z,88.82
2023-03-13T07:42:40.550Z,88.40
2023-03-13T07:47:45.072Z,87.98
2023-03-13T07:52:46.665Z,86.99
2023-03-13T07:57:48.199Z,86.78
2023-03-13T08:02:49.722Z,85.70
2023-03-13T08:07:51.279Z,84.82
2023-03-13T08:12:53.032Z,83.08
2023-03-13T08:17:57.810Z,83.08
2023-03-13T08:22:59.342Z,82.43
2023-03-13T08:28:03.151Z,81.37
2023-03-13T08:33:07.432Z,80.20
2023-03-13T08:38:15.100Z,80.80
2023-03-13T08:43:16.605Z,81.01
2023-03-13T08:48:18.262Z,81.00
2023-03-13T08:53:19.772Z,80.39
2023-03-13T08:58:21.509Z,80.75
2023-03-13T09:03:23.171Z,79.19
2023-03-13T09:08:25.441Z,79.53
2023-03-13T09:13:28.994Z,79.03
2023-03-13T09:18:31.172Z,78.10
2023-03-13T09:23:32.978Z,78.16
2023-03-13T09:28:39.485Z,75.88
2023-03-13T09:33:42.659Z,74.67
2023-03-13T09:38:44.651Z,73.09
2023-03-13T09:44:09.870Z,71.82
2023-03-13T09:49:34.950Z,69.47
2023-03-13T09:54:42.047Z,69.11
2023-03-13T09:59:57.392Z,67.19
2023-03-13T10:05:22.327Z,66.49
2023-03-13T10:10:39.137Z,65.67
2023-03-13T10:15:56.960Z,65.86
2023-03-13T10:21:01.758Z,66.02
2023-03-13T10:26:03.374Z,65.55
2023-03-13T10:31:23.838Z,65.21
2023-03-13T10:36:25.461Z,63.82
2023-03-13T10:41:31.145Z,62.34
2023-03-13T10:46:36.089Z,63.56
2023-03-13T10:51:48.939Z,64.15
2023-03-13T10:56:51.904Z,64.61
2023-03-13T11:02:01.505Z,65.71
2023-03-13T11:07:28.745Z,65.73
2023-03-13T11:12:34.793Z,66.21
2023-03-13T11:17:39.919Z,65.56
2023-03-13T11:22:53.550Z,66.82
2023-03-13T11:28:15.350Z,66.41
2023-03-13T11:33:28.242Z,65.91
2023-03-13T11:38:39.993Z,65.75
2023-03-13T11:44:07.103Z,64.94
2023-03-13T11:49:29.341Z,64.23
2023-03-13T11:54:59.657Z,63.29
2023-03-13T12:00:31.200Z,62.39
2023-03-13T12:05:46.164Z,61.07
2023-03-13T12:11:00.405Z,60.32
2023-03-13T12:16:10.202Z,59.41
2023-03-13T12:21:23.346Z,59.20
2023-03-13T12:27:15.479Z,58.77
2023-03-13T12:32:28.867Z,58.39
2023-03-13T12:37:47.596Z,56.76
2023-03-13T12:43:00.653Z,56.42
2023-03-13T12:48:14.238Z,57.56
2023-03-13T12:53:42.129Z,56.93
2023-03-13T12:58:51.880Z,57.07
2023-03-13T13:04:00.881Z,56.35
2023-03-13T13:09:27.020Z,55.96
2023-03-13T13:14:28.505Z,55.85
2023-03-13T13:19:42.202Z,56.09
2023-03-13T13:24:52.134Z,55.34
2023-03-13T13:29:58.597Z,55.13
2023-03-13T13:35:03.372Z,55.52
2023-03-13T13:40:24.358Z,55.60
2023-03-13T13:45:35.192Z,55.18
2023-03-13T13:50:36.844Z,55.16
2023-03-13T13:55:43.822Z,55.52
2023-03-13T14:01:03.696Z,55.71
2023-03-13T14:06:30.871Z,55.29
2023-03-13T14:11:39.436Z,55.32
2023-03-13T14:16:46.302Z,55.86
2023-03-13T14:21:47.937Z,55.87
2023-03-13T14:26:49.491Z,55.99
2023-03-13T14:31:56.910Z,55.68
2023-03-13T14:37:16.777Z,55.94
2023-03-13T14:42:19.367Z,55.71
2023-03-13T14:47:32.178Z,55.66
2023-03-13T14:52:34.232Z,55.58
2023-03-13T14:57:36.122Z,55.73
2023-03-13T15:02:38.767Z,55.71
2023-03-13T15:07:47.384Z,55.90
2023-03-13T15:12:49.602Z,56.25
2023-03-13T15:17:51.126Z,56.78
2023-03-13T15:22:52.634Z,56.95
2023-03-13T15:27:54.151Z,56.90
2023-03-13T15:32:55.718Z,56.52
2023-03-13T15:37:59.474Z,56.61
2023-03-13T15:43:01.045Z,56.32
2023-03-13T15:48:02.863Z,56.29
2023-03-13T15:53:16.492Z,55.95
2023-03-13T15:58:18.546Z,55.79
2023-03-13T16:03:24.680Z,55.99
2023-03-13T16:08:36.395Z,56.60
2023-03-13T16:13:38.627Z,56.60
2023-03-13T16:18:40.140Z,56.68
2023-03-13T16:23:41.633Z,56.42
2023-03-13T16:28:43.613Z,56.63
2023-03-13T16:33:45.578Z,56.83
2023-03-13T16:38:48.046Z,56.96
2023-03-13T16:43:50.304Z,57.37
2023-03-13T16:48:51.863Z,57.43
2023-03-13T16:53:55.652Z,57.71
2023-03-13T16:58:58.394Z,57.55
2023-03-13T17:04:00.372Z,57.97
2023-03-13T17:09:02.703Z,58.73
2023-03-13T17:14:04.526Z,60.50
2023-03-13T17:19:08.880Z,59.82
2023-03-13T17:24:10.375Z,60.23
2023-03-13T17:29:18.725Z,60.21
2023-03-13T17:34:20.271Z,63.63
2023-03-13T17:39:24.378Z,67.86
2023-03-13T17:44:25.952Z,71.09
2023-03-13T17:49:29.505Z,72.29
2023-03-13T17:54:31.027Z,80.25
2023-03-13T17:59:32.553Z,84.48
2023-03-13T18:04:34.069Z,88.49
2023-03-13T18:09:35.547Z,93.11
2023-03-13T18:14:37.750Z,94.45
2023-03-13T18:19:39.247Z,95.35
2023-03-13T18:24:41.208Z,97.66
2023-03-13T18:29:43.637Z,98.61
2023-03-13T18:34:45.582Z,100.00
2023-03-13T18:39:49.891Z,100.00
2023-03-13T18:44:51.449Z,100.00
2023-03-13T18:49:52.968Z,100.00
2023-03-13T18:54:54.495Z,100.00
2023-03-13T18:59:56.000Z,100.00
2023-03-13T19:04:57.500Z,100.00
2023-03-13T19:09:59.068Z,100.00
2023-03-13T19:15:00.555Z,100.00
2023-03-13T19:20:02.123Z,100.00
2023-03-13T19:25:03.889Z,100.00
2023-03-13T19:30:14.736Z,100.00
2023-03-13T19:35:21.722Z,100.00
2023-03-13T19:40:25.950Z,100.00
2023-03-13T19:45:27.715Z,100.00
2023-03-13T19:50:31.028Z,100.00
2023-03-13T19:55:32.541Z,100.00
2023-03-13T20:00:37.419Z,100.00
2023-03-13T20:05:38.918Z,100.00
2023-03-13T20:10:40.419Z,100.00
2023-03-13T20:15:42.019Z,100.00
2023-03-13T20:20:43.655Z,100.00
2023-03-13T20:25:45.192Z,100.00
2023-03-13T20:30:48.485Z,100.00
2023-03-13T20:35:50.041Z,100.00
2023-03-13T20:40:53.586Z,100.00
2023-03-13T20:45:55.401Z,100.00
2023-03-13T20:51:00.059Z,100.00
2023-03-13T20:56:03.617Z,100.00
2023-03-13T21:01:07.295Z,100.00
2023-03-13T21:06:14.971Z,100.00
2023-03-13T21:11:19.288Z,100.00
2023-03-13T21:16:20.997Z,100.00
2023-03-13T21:21:22.604Z,100.00
2023-03-13T21:26:24.171Z,100.00
2023-03-13T21:31:28.136Z,100.00
2023-03-13T21:36:32.863Z,100.00
2023-03-13T21:41:35.208Z,100.00
2023-03-13T21:46:36.755Z,100.00
2023-03-13T21:51:38.281Z,100.00
2023-03-13T21:56:39.771Z,100.00
2023-03-13T22:01:42.351Z,100.00
2023-03-13T22:06:43.903Z,100.00
2023-03-13T22:11:45.516Z,100.00
2023-03-13T22:16:48.117Z,100.00
2023-03-13T22:21:49.686Z,100.00
2023-03-13T22:26:51.297Z,100.00
2023-03-13T22:31:52.827Z,100.00
2023-03-13T22:36:54.432Z,100.00
2023-03-13T22:41:56.004Z,100.00
2023-03-13T22:46:57.539Z,100.00
2023-03-13T22:51:59.367Z,100.00
2023-03-13T22:57:00.856Z,100.00
2023-03-13T23:02:02.365Z,100.00
2023-03-13T23:07:03.937Z,100.00
2023-03-13T23:12:05.712Z,100.00
2023-03-13T23:17:07.253Z,100.00
2023-03-13T23:22:08.892Z,100.00
2023-03-13T23:27:10.407Z,100.00
2023-03-13T23:32:11.994Z,100.00
2023-03-13T23:37:13.486Z,100.00
2023-03-13T23:42:15.023Z,100.00
2023-03-13T23:47:16.548Z,100.00
2023-03-13T23:52:18.124Z,100.00
2023-03-13T23:57:19.851Z,100.00
